Terminal Aerodrome Forecast
Issued by NWS

Home | Current Version | Previous Version | Text Only | Print | Product List | Glossary On
Versions: 1 2 3 4 5 6 7 8 9 10 11 12
000
FTUS45 KGJT 260520
TAFRIL
TAF
KRIL 260520Z 2606/2706 12006KT P6SM FEW150 SCT250
     FM260900 VRB03KT P6SM BKN120 BKN200
     FM261900 25012G22KT P6SM SCT120 SCT250
     FM270100 29006KT P6SM BKN120 BKN200=

USA.gov is the U.S. government's official web portal to all federal, state and local government web resources and services.